Time;durP1;ratioP1;P1;durP2;ratioP2;P2;SDS_P1;SDS_P2;PMS_P1;PMS_P2;Temp;Humidity;BMP_temperature;BMP_pressure;BME280_temperature;BME280_humidity;BME280_pressure;Samples;Min_cycle;Max_cycle;Signal;HPM_P1;HPM_P2
2023/06/29 00:01:02;;;;;;;5.40;3.53;;;18.70;99.90;;;;;;5060706;28;20175;-93
2023/06/29 00:03:33;;;;;;;6.40;3.67;;;18.80;99.90;;;;;;5060745;28;20172;-93
2023/06/29 00:06:01;;;;;;;7.47;3.93;;;18.70;99.90;;;;;;5075386;28;20179;-93
2023/06/29 00:08:28;;;;;;;5.87;3.60;;;18.90;99.90;;;;;;5065535;28;20191;-92
2023/06/29 00:10:55;;;;;;;6.40;3.70;;;18.70;99.90;;;;;;5063425;28;20221;-93
2023/06/29 00:13:21;;;;;;;7.17;3.40;;;18.60;99.90;;;;;;5064743;28;20179;-93
2023/06/29 00:15:48;;;;;;;5.20;3.47;;;18.70;99.90;;;;;;5069185;28;20255;-93
2023/06/29 00:18:14;;;;;;;5.50;3.53;;;18.70;99.90;;;;;;5062337;28;20214;-93
2023/06/29 00:20:40;;;;;;;8.00;3.83;;;18.70;99.90;;;;;;5059716;28;20202;-93
2023/06/29 00:23:06;;;;;;;8.90;3.67;;;18.70;99.90;;;;;;5059008;28;20195;-93
2023/06/29 00:25:32;;;;;;;4.77;4.00;;;18.70;99.90;;;;;;5061509;28;20179;-93
2023/06/29 00:27:58;;;;;;;6.50;4.20;;;18.80;99.90;;;;;;5058748;28;20200;-92
2023/06/29 00:30:23;;;;;;;6.63;3.73;;;18.70;99.90;;;;;;5058976;28;20215;-93
2023/06/29 00:32:49;;;;;;;6.93;3.97;;;18.70;99.90;;;;;;5059331;28;20214;-93
2023/06/29 00:35:15;;;;;;;10.83;4.93;;;18.70;99.90;;;;;;5059301;28;20179;-93
2023/06/29 00:37:42;;;;;;;6.17;4.10;;;18.60;99.90;;;;;;5059310;28;20237;-93
2023/06/29 00:40:09;;;;;;;5.13;3.53;;;18.70;99.90;;;;;;5058845;28;20211;-93
2023/06/29 00:42:35;;;;;;;9.10;4.63;;;18.60;99.90;;;;;;5060293;28;20266;-93
2023/06/29 00:45:02;;;;;;;8.50;5.03;;;18.60;99.90;;;;;;5061762;28;20204;-92
2023/06/29 00:47:28;;;;;;;8.13;4.13;;;18.60;99.90;;;;;;5058497;28;20203;-93
2023/06/29 00:49:54;;;;;;;5.57;4.07;;;18.60;99.90;;;;;;5058891;28;20261;-92
2023/06/29 00:52:20;;;;;;;7.03;4.27;;;18.60;99.90;;;;;;5059803;28;20271;-93
2023/06/29 00:54:46;;;;;;;7.67;4.10;;;18.50;99.90;;;;;;5058989;28;20321;-93
2023/06/29 00:57:12;;;;;;;5.27;3.97;;;18.50;99.90;;;;;;5057888;28;20172;-92
2023/06/29 00:59:38;;;;;;;5.57;4.20;;;18.70;99.90;;;;;;5058058;28;20759;-92
2023/06/29 01:02:04;;;;;;;5.93;4.07;;;18.60;99.90;;;;;;5058933;28;20267;-92
2023/06/29 01:04:29;;;;;;;6.93;4.10;;;18.70;99.90;;;;;;5058367;28;20618;-93
2023/06/29 01:07:06;;;;;;;7.83;4.50;;;18.60;99.90;;;;;;5058880;28;20176;-93
2023/06/29 01:09:33;;;;;;;10.33;4.43;;;19.70;99.90;;;;;;5057706;28;20288;-92
2023/06/29 01:12:00;;;;;;;7.57;4.47;;;19.30;99.90;;;;;;5058258;28;20180;-92
2023/06/29 01:14:26;;;;;;;6.70;4.37;;;18.40;99.90;;;;;;5058560;28;20210;-93
2023/06/29 01:16:54;;;;;;;7.67;4.23;;;19.70;99.90;;;;;;5057860;28;20179;-93
2023/06/29 01:19:25;;;;;;;8.27;4.53;;;18.80;99.90;;;;;;5058525;28;20558;-92
2023/06/29 01:22:10;;;;;;;5.70;4.03;;;18.80;99.90;;;;;;5056650;28;20198;-92
2023/06/29 01:24:42;;;;;;;10.77;4.13;;;18.60;99.90;;;;;;5057274;28;20172;-92
2023/06/29 01:27:08;;;;;;;7.80;4.10;;;18.60;99.90;;;;;;5057708;28;20175;-92
2023/06/29 01:29:34;;;;;;;5.53;3.50;;;18.60;99.90;;;;;;5056758;28;20204;-92
2023/06/29 01:32:03;;;;;;;8.87;4.33;;;18.90;99.90;;;;;;5057280;28;20559;-93
2023/06/29 01:34:31;;;;;;;6.97;4.07;;;18.60;99.90;;;;;;5056680;28;20274;-92
2023/06/29 01:37:06;;;;;;;5.47;3.70;;;18.70;99.90;;;;;;5057300;28;20179;-92
2023/06/29 01:39:39;;;;;;;6.93;3.90;;;18.60;99.90;;;;;;5057780;28;20212;-93
2023/06/29 01:42:06;;;;;;;6.80;4.03;;;18.50;99.90;;;;;;5057176;28;20633;-92
2023/06/29 01:44:32;;;;;;;6.10;4.17;;;18.60;99.90;;;;;;5057790;28;20301;-93
2023/06/29 01:46:58;;;;;;;7.50;4.70;;;18.60;99.90;;;;;;5057438;28;20242;-93
2023/06/29 01:49:24;;;;;;;6.03;4.23;;;18.60;99.90;;;;;;5056724;28;20202;-92
2023/06/29 01:51:49;;;;;;;8.43;4.47;;;18.60;99.90;;;;;;5056258;28;20179;-92
2023/06/29 01:54:15;;;;;;;5.13;4.23;;;18.60;99.90;;;;;;5057382;28;20252;-92
2023/06/29 01:56:41;;;;;;;9.00;4.20;;;18.60;99.90;;;;;;5057188;28;20528;-92
2023/06/29 01:59:06;;;;;;;11.43;4.53;;;18.50;99.90;;;;;;5057078;28;20580;-93
2023/06/29 02:01:32;;;;;;;8.20;4.20;;;18.80;99.90;;;;;;5056295;28;20178;-93
2023/06/29 02:03:57;;;;;;;6.10;4.47;;;18.60;99.90;;;;;;5057068;28;20258;-92
2023/06/29 02:06:23;;;;;;;7.73;4.20;;;18.60;99.90;;;;;;5056424;28;20179;-92
2023/06/29 02:08:49;;;;;;;7.77;3.93;;;18.50;99.90;;;;;;5056877;28;20393;-92
2023/06/29 02:11:14;;;;;;;8.77;3.70;;;18.50;99.90;;;;;;5058132;28;20570;-92
2023/06/29 02:13:40;;;;;;;7.70;3.97;;;18.70;99.90;;;;;;5058000;28;20190;-93
2023/06/29 02:16:05;;;;;;;7.17;4.57;;;18.60;99.90;;;;;;5057648;28;20186;-92
2023/06/29 02:18:31;;;;;;;6.40;3.80;;;18.60;99.90;;;;;;5056539;28;20215;-92
2023/06/29 02:20:57;;;;;;;9.43;4.30;;;18.60;99.90;;;;;;5056491;28;20180;-92
2023/06/29 02:23:23;;;;;;;5.40;3.73;;;18.50;99.90;;;;;;5056691;28;20199;-92
2023/06/29 02:25:49;;;;;;;5.87;4.13;;;18.50;99.90;;;;;;5057228;28;20193;-92
2023/06/29 02:28:14;;;;;;;6.70;4.40;;;18.80;99.90;;;;;;5057149;28;20179;-92
2023/06/29 02:30:40;;;;;;;6.50;3.80;;;18.50;99.90;;;;;;5061301;28;20171;-93
2023/06/29 02:33:05;;;;;;;9.73;3.83;;;18.50;99.90;;;;;;5060995;28;20222;-93
2023/06/29 02:35:31;;;;;;;7.60;4.37;;;18.50;99.90;;;;;;5057323;28;20186;-93
2023/06/29 02:37:56;;;;;;;7.57;4.57;;;18.40;99.90;;;;;;5056785;28;20536;-92
2023/06/29 02:40:22;;;;;;;6.33;4.20;;;18.40;99.90;;;;;;5056920;28;20200;-93
2023/06/29 02:42:48;;;;;;;7.83;4.50;;;18.40;99.90;;;;;;5056316;28;20207;-93
2023/06/29 02:45:13;;;;;;;7.13;5.10;;;18.40;99.90;;;;;;5057132;28;20222;-93
2023/06/29 02:47:39;;;;;;;6.93;4.77;;;18.40;99.90;;;;;;5056271;28;20183;-92
2023/06/29 02:50:05;;;;;;;6.37;4.17;;;18.50;99.90;;;;;;5056635;28;20211;-93
2023/06/29 02:52:30;;;;;;;9.33;4.37;;;18.40;99.90;;;;;;5056489;28;20264;-92
2023/06/29 02:54:56;;;;;;;11.67;4.53;;;18.40;99.90;;;;;;5056825;28;20183;-93
2023/06/29 02:57:21;;;;;;;9.60;4.20;;;18.40;99.90;;;;;;5057304;28;20171;-93
2023/06/29 02:59:47;;;;;;;12.07;4.33;;;18.50;99.90;;;;;;5057374;28;20265;-93
2023/06/29 03:02:12;;;;;;;12.53;4.27;;;18.30;99.90;;;;;;5057337;28;20171;-93
2023/06/29 03:04:38;;;;;;;6.00;4.30;;;18.20;99.90;;;;;;5057828;28;20179;-93
2023/06/29 03:07:04;;;;;;;7.80;4.30;;;18.60;99.90;;;;;;5056637;28;20183;-93
2023/06/29 03:09:29;;;;;;;5.33;4.23;;;18.40;99.90;;;;;;5056347;28;20218;-94
2023/06/29 03:11:55;;;;;;;7.63;4.60;;;18.40;99.90;;;;;;5055807;28;20256;-92
2023/06/29 03:14:21;;;;;;;5.47;4.10;;;18.60;99.90;;;;;;5055976;28;20248;-92
2023/06/29 03:16:47;;;;;;;7.40;4.20;;;18.40;99.90;;;;;;5055494;28;20179;-92
2023/06/29 03:19:13;;;;;;;11.53;4.90;;;19.50;99.90;;;;;;5056023;28;20275;-92
2023/06/29 03:21:38;;;;;;;9.47;4.40;;;18.40;99.90;;;;;;5055439;28;20176;-92
2023/06/29 03:24:04;;;;;;;9.87;4.70;;;18.40;99.90;;;;;;5057153;28;20215;-93
2023/06/29 03:26:30;;;;;;;7.80;4.27;;;18.40;99.90;;;;;;5056817;28;20183;-92
2023/06/29 03:28:55;;;;;;;6.03;4.03;;;18.80;99.90;;;;;;5056843;28;20199;-93
2023/06/29 03:31:21;;;;;;;8.30;4.73;;;18.40;99.90;;;;;;5056706;28;20183;-93
2023/06/29 03:33:46;;;;;;;5.27;4.33;;;18.40;99.90;;;;;;5057284;28;20207;-92
2023/06/29 03:36:12;;;;;;;8.27;4.83;;;18.40;99.90;;;;;;5056823;28;20187;-93
2023/06/29 03:38:38;;;;;;;9.87;4.80;;;18.40;99.90;;;;;;5056372;28;20253;-93
2023/06/29 03:41:03;;;;;;;9.03;4.77;;;18.40;99.90;;;;;;5056203;28;20179;-93
2023/06/29 03:43:29;;;;;;;8.97;4.73;;;19.20;99.90;;;;;;5056357;28;20234;-93
2023/06/29 03:45:57;;;;;;;5.30;4.43;;;18.40;99.90;;;;;;5056299;28;20176;-92
2023/06/29 03:48:27;;;;;;;7.40;4.67;;;18.40;99.90;;;;;;5057735;28;20202;-93
2023/06/29 03:50:54;;;;;;;5.97;4.57;;;18.30;99.90;;;;;;5057001;28;20164;-93
2023/06/29 03:53:19;;;;;;;10.37;4.97;;;18.40;99.90;;;;;;5056460;28;20176;-93
2023/06/29 03:55:45;;;;;;;7.90;4.50;;;18.40;99.90;;;;;;5056434;28;20199;-92
2023/06/29 03:58:10;;;;;;;6.47;4.07;;;18.40;99.90;;;;;;5056353;28;20199;-93
2023/06/29 04:00:36;;;;;;;8.50;4.73;;;18.40;99.90;;;;;;5056355;28;20534;-92
2023/06/29 04:03:02;;;;;;;7.57;4.53;;;18.40;99.90;;;;;;5056560;28;20709;-92
2023/06/29 04:05:27;;;;;;;6.40;4.07;;;18.40;99.90;;;;;;5056482;28;20541;-92
2023/06/29 04:07:53;;;;;;;7.53;4.20;;;18.40;99.90;;;;;;5056221;28;20180;-92
2023/06/29 04:10:19;;;;;;;8.10;4.20;;;18.60;99.90;;;;;;5056503;28;20600;-93
2023/06/29 04:12:44;;;;;;;5.17;3.87;;;18.40;99.90;;;;;;5056961;28;20230;-93
2023/06/29 04:15:10;;;;;;;9.27;4.23;;;18.40;99.90;;;;;;5057636;28;20180;-92
2023/06/29 04:17:35;;;;;;;7.37;3.87;;;18.40;99.90;;;;;;5057698;28;20637;-93
2023/06/29 04:20:03;;;;;;;5.63;3.80;;;18.40;99.90;;;;;;5055831;28;20658;-93
2023/06/29 04:22:28;;;;;;;6.67;3.93;;;18.40;99.90;;;;;;5055322;28;20180;-92
2023/06/29 04:24:54;;;;;;;9.63;4.93;;;18.60;99.90;;;;;;5055930;28;20215;-92
2023/06/29 04:27:19;;;;;;;7.80;4.60;;;18.50;99.90;;;;;;5055965;28;20171;-92
2023/06/29 04:29:45;;;;;;;5.07;4.17;;;18.60;99.90;;;;;;5056499;28;20196;-93
2023/06/29 04:32:10;;;;;;;7.50;4.23;;;18.50;99.90;;;;;;5059883;28;20175;-92
2023/06/29 04:34:36;;;;;;;11.33;5.10;;;18.50;99.90;;;;;;5059404;28;20183;-93
2023/06/29 04:37:02;;;;;;;6.00;4.03;;;18.40;99.90;;;;;;5059812;28;20180;-92
2023/06/29 04:39:28;;;;;;;5.40;4.27;;;18.40;99.90;;;;;;5059707;28;20241;-93
2023/06/29 04:42:01;;;;;;;7.40;4.10;;;18.50;99.90;;;;;;5061470;28;20199;-93
2023/06/29 04:44:31;;;;;;;7.63;4.53;;;18.50;99.90;;;;;;5060841;28;20148;-93
2023/06/29 04:47:02;;;;;;;7.50;4.60;;;18.50;99.90;;;;;;5058798;28;20243;-92
2023/06/29 04:49:31;;;;;;;10.83;4.83;;;18.40;99.90;;;;;;5060967;28;20215;-92
2023/06/29 04:51:59;;;;;;;7.10;4.77;;;18.30;99.90;;;;;;5060329;28;20176;-93
2023/06/29 04:54:26;;;;;;;10.73;4.70;;;18.70;99.90;;;;;;5059898;28;20186;-93
2023/06/29 04:56:52;;;;;;;9.67;5.00;;;18.50;99.90;;;;;;5060262;28;20179;-93
2023/06/29 04:59:18;;;;;;;8.07;4.50;;;19.30;99.90;;;;;;5059389;28;20214;-92
2023/06/29 05:01:43;;;;;;;6.23;4.47;;;18.70;99.90;;;;;;5059919;28;20668;-93
2023/06/29 05:04:09;;;;;;;8.10;4.77;;;18.60;99.90;;;;;;5060079;28;20679;-93
2023/06/29 05:06:34;;;;;;;7.27;4.90;;;18.60;99.90;;;;;;5061920;28;20270;-93
2023/06/29 05:09:00;;;;;;;8.53;4.60;;;18.50;99.90;;;;;;5062193;28;20192;-93
2023/06/29 05:11:25;;;;;;;7.53;4.73;;;18.60;99.90;;;;;;5059968;28;20217;-93
2023/06/29 05:13:51;;;;;;;6.20;4.70;;;18.80;99.90;;;;;;5051960;28;20237;-92
2023/06/29 05:16:16;;;;;;;8.27;4.77;;;18.60;99.90;;;;;;5057744;28;20206;-92
2023/06/29 05:18:42;;;;;;;7.40;4.83;;;18.60;99.90;;;;;;5064308;28;20219;-93
2023/06/29 05:21:08;;;;;;;8.20;4.90;;;18.70;99.90;;;;;;5064008;28;20202;-95
2023/06/29 05:23:34;;;;;;;11.43;5.40;;;18.70;99.90;;;;;;5075283;28;20171;-95
2023/06/29 05:25:59;;;;;;;10.87;4.93;;;19.20;99.90;;;;;;5063080;28;20202;-92
2023/06/29 05:28:25;;;;;;;6.40;4.70;;;18.80;99.90;;;;;;5035546;28;20205;-93
2023/06/29 05:30:50;;;;;;;8.10;4.87;;;18.80;99.90;;;;;;5035775;28;20221;-93
2023/06/29 05:33:16;;;;;;;11.23;4.80;;;18.80;99.90;;;;;;5043229;28;20195;-94
2023/06/29 05:35:43;;;;;;;10.30;4.93;;;18.90;99.90;;;;;;5044164;28;20733;-93
2023/06/29 05:38:09;;;;;;;8.17;5.17;;;18.90;99.90;;;;;;5044700;28;20318;-94
2023/06/29 05:40:34;;;;;;;9.30;5.20;;;19.00;99.90;;;;;;5055026;28;20184;-94
2023/06/29 05:43:00;;;;;;;7.70;4.73;;;18.90;99.90;;;;;;5052286;28;20215;-94
2023/06/29 05:45:25;;;;;;;9.03;5.37;;;19.10;99.90;;;;;;5052570;28;20191;-94
2023/06/29 05:47:51;;;;;;;7.33;4.87;;;19.10;99.90;;;;;;5053106;28;20270;-94
2023/06/29 05:50:17;;;;;;;9.87;4.97;;;19.00;99.90;;;;;;5035464;28;20195;-94
2023/06/29 05:52:42;;;;;;;8.67;5.00;;;19.10;99.90;;;;;;5053730;28;20183;-94
2023/06/29 05:55:08;;;;;;;10.13;4.87;;;19.10;99.90;;;;;;5046871;28;20195;-93
2023/06/29 05:57:34;;;;;;;7.50;4.90;;;19.10;99.90;;;;;;5054070;28;20194;-93
2023/06/29 05:59:59;;;;;;;8.07;5.23;;;19.10;99.90;;;;;;5053491;28;20222;-93
2023/06/29 06:02:25;;;;;;;8.30;5.27;;;19.10;99.90;;;;;;5055413;28;20262;-93
2023/06/29 06:04:50;;;;;;;11.37;5.53;;;19.20;99.90;;;;;;5055110;28;20179;-90
2023/06/29 06:07:27;;;;;;;12.23;5.83;;;19.20;99.90;;;;;;5054932;28;20172;-91
2023/06/29 06:09:53;;;;;;;11.03;5.27;;;19.40;99.90;;;;;;5035403;28;20242;-93
2023/06/29 06:12:18;;;;;;;9.47;5.07;;;19.30;99.90;;;;;;5035865;28;20184;-92
2023/06/29 06:14:44;;;;;;;7.87;4.63;;;19.40;99.90;;;;;;5035494;28;20184;-92
2023/06/29 06:17:09;;;;;;;6.77;4.70;;;19.50;99.90;;;;;;5035469;28;20180;-92
2023/06/29 06:19:35;;;;;;;9.13;4.90;;;19.40;99.90;;;;;;5035258;28;20212;-93
2023/06/29 06:22:00;;;;;;;7.07;5.50;;;19.50;99.90;;;;;;5035250;28;20199;-92
2023/06/29 06:24:26;;;;;;;8.90;5.30;;;19.70;99.90;;;;;;5035424;28;20638;-92
2023/06/29 06:26:52;;;;;;;12.17;5.57;;;19.60;99.90;;;;;;5035090;28;20188;-93
2023/06/29 06:29:17;;;;;;;9.20;5.47;;;19.60;99.90;;;;;;5036334;28;20192;-92
2023/06/29 06:31:43;;;;;;;8.30;5.47;;;19.70;99.90;;;;;;5034704;28;20192;-92
2023/06/29 06:34:08;;;;;;;10.97;5.93;;;19.70;99.90;;;;;;5035304;28;20192;-92
2023/06/29 06:36:34;;;;;;;7.83;5.40;;;19.60;95.70;;;;;;5036854;28;20180;-93
2023/06/29 06:39:00;;;;;;;8.43;5.37;;;19.70;90.50;;;;;;5036315;28;20240;-93
2023/06/29 06:41:25;;;;;;;9.83;5.13;;;19.80;85.80;;;;;;5045427;28;20184;-93
2023/06/29 06:43:51;;;;;;;9.53;5.50;;;19.80;90.40;;;;;;5051046;28;20187;-94
2023/06/29 06:46:17;;;;;;;8.00;5.50;;;19.80;93.70;;;;;;5041624;28;20168;-94
2023/06/29 06:48:42;;;;;;;7.20;5.20;;;19.90;92.80;;;;;;5041440;28;20239;-94
2023/06/29 06:51:08;;;;;;;7.87;5.67;;;19.90;93.10;;;;;;5041675;28;20203;-94
2023/06/29 06:53:34;;;;;;;8.00;5.57;;;20.00;91.50;;;;;;5048238;28;20191;-94
2023/06/29 06:56:00;;;;;;;9.83;5.30;;;20.00;84.90;;;;;;5057768;28;20180;-93
2023/06/29 06:58:25;;;;;;;9.43;5.70;;;20.10;85.20;;;;;;5054406;28;20207;-93
2023/06/29 07:00:51;;;;;;;11.83;5.40;;;20.20;75.50;;;;;;5054430;28;20271;-93
2023/06/29 07:03:19;;;;;;;8.07;5.63;;;20.20;69.90;;;;;;5050670;28;20223;-92
2023/06/29 07:05:45;;;;;;;8.77;5.47;;;20.20;57.70;;;;;;5050098;28;20243;-93
2023/06/29 07:08:11;;;;;;;8.13;5.23;;;20.10;48.60;;;;;;5054756;28;20267;-93
2023/06/29 07:10:36;;;;;;;11.70;5.10;;;20.20;38.40;;;;;;5056018;28;20217;-94
2023/06/29 07:13:02;;;;;;;11.57;5.53;;;20.20;29.80;;;;;;5055432;28;20188;-94
2023/06/29 07:15:27;;;;;;;19.93;6.43;;;20.30;25.70;;;;;;5043240;28;20287;-94
2023/06/29 07:17:53;;;;;;;12.60;5.97;;;20.10;18.20;;;;;;5046138;28;20190;-93
2023/06/29 07:20:19;;;;;;;9.30;6.00;;;20.20;11.00;;;;;;5052380;28;20247;-93
2023/06/29 07:22:44;;;;;;;10.03;5.83;;;20.20;10.70;;;;;;5054801;28;20642;-93
2023/06/29 07:25:11;;;;;;;13.03;5.90;;;20.50;8.60;;;;;;5054891;28;20183;-93
2023/06/29 07:27:39;;;;;;;10.33;5.10;;;21.00;5.40;;;;;;5054219;28;20183;-93
2023/06/29 07:30:06;;;;;;;10.80;6.50;;;20.40;29.30;;;;;;5053296;28;20195;-93
2023/06/29 07:32:31;;;;;;;11.93;5.63;;;20.40;19.50;;;;;;5053254;28;20191;-93
2023/06/29 07:34:57;;;;;;;7.83;5.17;;;20.50;6.60;;;;;;5053306;28;20179;-93
2023/06/29 07:37:23;;;;;;;8.07;4.90;;;21.30;15.60;;;;;;5054467;28;20183;-93
2023/06/29 07:39:49;;;;;;;10.03;5.23;;;20.50;17.20;;;;;;5056781;28;20217;-92
2023/06/29 07:42:14;;;;;;;8.40;5.40;;;20.70;17.00;;;;;;5056716;28;20172;-92
2023/06/29 07:44:40;;;;;;;15.17;5.73;;;20.70;8.80;;;;;;5054987;28;20180;-93
2023/06/29 07:47:06;;;;;;;9.33;5.70;;;20.80;2.70;;;;;;5055332;28;20264;-93
2023/06/29 07:49:31;;;;;;;11.43;5.57;;;20.90;1.00;;;;;;5053929;28;20287;-93
2023/06/29 07:51:58;;;;;;;11.23;5.53;;;20.90;1.00;;;;;;5054029;28;20179;-93
2023/06/29 07:54:23;;;;;;;9.47;5.23;;;20.90;1.00;;;;;;5054392;28;20691;-93
2023/06/29 07:56:49;;;;;;;10.67;5.73;;;20.90;1.00;;;;;;5055873;28;20176;-93
2023/06/29 07:59:15;;;;;;;10.87;6.10;;;21.10;1.00;;;;;;5053132;28;20211;-93
2023/06/29 08:01:41;;;;;;;15.40;6.77;;;21.10;1.00;;;;;;5052070;28;20282;-92
2023/06/29 08:04:07;;;;;;;12.40;6.33;;;21.20;1.00;;;;;;5046554;28;20271;-92
2023/06/29 08:06:34;;;;;;;9.53;6.33;;;21.10;1.00;;;;;;5061685;28;20194;-93
2023/06/29 08:09:00;;;;;;;11.07;6.33;;;21.20;1.00;;;;;;5068463;28;20210;-94
2023/06/29 08:11:26;;;;;;;9.50;6.03;;;21.10;1.00;;;;;;5067129;28;20187;-93
2023/06/29 08:13:52;;;;;;;10.30;5.73;;;21.10;1.00;;;;;;5054906;28;20184;-93
2023/06/29 08:16:17;;;;;;;11.07;5.80;;;21.10;1.00;;;;;;5050470;28;20176;-93
2023/06/29 08:18:43;;;;;;;10.37;5.73;;;21.10;1.00;;;;;;5059003;28;20262;-93
2023/06/29 08:21:10;;;;;;;9.13;5.90;;;21.10;1.00;;;;;;5040248;28;20180;-93
2023/06/29 08:23:36;;;;;;;12.17;6.40;;;21.40;1.00;;;;;;5043736;28;20179;-93
2023/06/29 08:26:03;;;;;;;9.67;6.10;;;21.10;1.00;;;;;;5056075;28;20175;-94
2023/06/29 08:28:29;;;;;;;9.07;5.53;;;21.40;1.00;;;;;;5039586;28;20196;-93
2023/06/29 08:30:55;;;;;;;11.07;6.20;;;21.10;1.00;;;;;;5055182;28;20227;-93
2023/06/29 08:33:23;;;;;;;9.73;6.10;;;21.10;1.00;;;;;;5053681;28;20192;-94
2023/06/29 08:35:52;;;;;;;9.03;5.83;;;21.10;1.00;;;;;;5041099;28;20187;-92
2023/06/29 08:38:18;;;;;;;10.83;6.00;;;21.10;1.00;;;;;;5053161;28;20179;-94
2023/06/29 08:40:46;;;;;;;12.00;5.70;;;21.20;5.00;;;;;;5052459;28;20406;-94
2023/06/29 08:43:12;;;;;;;8.23;5.30;;;21.10;8.20;;;;;;5064412;28;20180;-93
2023/06/29 08:45:37;;;;;;;8.00;5.73;;;21.30;20.80;;;;;;5064949;28;20224;-93
2023/06/29 08:48:04;;;;;;;8.53;5.63;;;21.10;26.90;;;;;;5064445;28;20179;-93
2023/06/29 08:50:32;;;;;;;11.63;5.70;;;21.20;22.40;;;;;;5064738;28;20187;-93
2023/06/29 08:52:58;;;;;;;10.50;6.50;;;21.80;47.30;;;;;;5064137;28;20187;-93
2023/06/29 08:55:24;;;;;;;10.17;5.57;;;21.20;43.60;;;;;;5067079;28;20288;-93
2023/06/29 08:57:52;;;;;;;8.00;6.07;;;21.40;49.20;;;;;;5065208;28;20171;-93
2023/06/29 09:00:19;;;;;;;10.43;6.37;;;21.30;49.90;;;;;;5065814;28;20216;-93
2023/06/29 09:02:45;;;;;;;10.07;6.50;;;21.30;44.50;;;;;;5066192;28;20178;-93
2023/06/29 09:05:13;;;;;;;10.20;6.83;;;21.20;40.00;;;;;;5067211;28;20614;-93
2023/06/29 09:07:40;;;;;;;14.53;6.90;;;21.70;37.10;;;;;;5065114;28;20171;-93
2023/06/29 09:10:08;;;;;;;9.67;6.70;;;21.40;20.20;;;;;;5064179;28;20199;-93
2023/06/29 09:12:36;;;;;;;13.90;6.90;;;21.50;17.10;;;;;;5063674;28;20210;-91
2023/06/29 09:15:07;;;;;;;9.83;6.87;;;21.60;4.20;;;;;;5065507;28;20183;-94
2023/06/29 09:17:34;;;;;;;10.53;7.13;;;21.60;1.00;;;;;;5065068;28;20171;-93
2023/06/29 09:20:00;;;;;;;15.27;7.37;;;21.60;1.00;;;;;;5065292;28;20215;-93
2023/06/29 09:22:27;;;;;;;13.50;7.73;;;21.90;1.00;;;;;;5064433;28;20180;-93
2023/06/29 09:24:57;;;;;;;12.87;8.10;;;21.80;1.00;;;;;;5063877;28;20229;-94
2023/06/29 09:27:23;;;;;;;12.77;8.80;;;21.80;1.00;;;;;;5065477;28;20190;-93
2023/06/29 09:29:53;;;;;;;15.57;7.53;;;22.80;1.00;;;;;;5065180;28;20298;-94
2023/06/29 09:32:19;;;;;;;13.57;7.90;;;22.20;1.00;;;;;;5065270;28;20187;-93
2023/06/29 09:34:46;;;;;;;12.77;8.50;;;22.20;1.00;;;;;;5067731;28;20260;-93
2023/06/29 09:37:14;;;;;;;14.70;8.57;;;22.20;1.00;;;;;;5066595;28;20187;-93
2023/06/29 09:39:49;;;;;;;14.77;7.97;;;22.40;1.00;;;;;;5064393;28;20695;-93
2023/06/29 09:42:15;;;;;;;14.67;8.23;;;22.50;1.00;;;;;;5071712;28;20183;-93
2023/06/29 09:44:44;;;;;;;13.57;8.57;;;22.70;1.00;;;;;;5065341;28;20194;-92
2023/06/29 09:47:11;;;;;;;13.37;8.57;;;22.80;1.00;;;;;;5066205;28;20622;-93
2023/06/29 09:49:50;;;;;;;11.53;8.33;;;22.90;1.00;;;;;;5067438;28;20199;-94
2023/06/29 09:52:19;;;;;;;15.17;9.77;;;23.10;1.00;;;;;;5067101;28;20172;-93
2023/06/29 09:54:45;;;;;;;21.80;10.17;;;23.90;1.00;;;;;;5068761;28;20187;-93
2023/06/29 09:57:11;;;;;;;14.57;10.73;;;23.30;1.00;;;;;;5067185;28;20180;-93
2023/06/29 09:59:41;;;;;;;15.80;9.50;;;23.30;1.00;;;;;;5068547;28;20226;-93
2023/06/29 10:02:08;;;;;;;14.43;10.13;;;23.40;1.00;;;;;;5057474;28;20219;-93
2023/06/29 10:04:34;;;;;;;16.77;10.70;;;23.70;1.00;;;;;;5046184;28;20175;-93
2023/06/29 10:07:15;;;;;;;17.60;11.10;;;23.70;99.90;;;;;;5062923;28;20183;-93
2023/06/29 10:09:45;;;;;;;22.83;12.50;;;23.80;99.90;;;;;;5064965;28;20199;-94
2023/06/29 10:12:11;;;;;;;19.70;12.33;;;24.00;99.90;;;;;;5065002;28;20179;-93
2023/06/29 10:14:38;;;;;;;18.03;11.07;;;24.10;99.90;;;;;;5063288;28;20187;-93
2023/06/29 10:17:25;;;;;;;20.53;13.03;;;24.10;99.90;;;;;;5065197;28;20199;-93
2023/06/29 10:19:53;;;;;;;19.07;11.73;;;24.00;99.90;;;;;;5065335;28;20275;-93
2023/06/29 10:22:21;;;;;;;20.67;12.03;;;24.20;99.90;;;;;;5060553;28;20629;-93
2023/06/29 10:24:51;;;;;;;17.57;11.90;;;24.20;99.90;;;;;;5059377;28;20191;-93
2023/06/29 10:27:19;;;;;;;18.33;11.80;;;24.00;99.90;;;;;;5062869;28;20187;-93
2023/06/29 10:29:46;;;;;;;18.77;11.80;;;24.00;99.90;;;;;;5063724;28;20207;-93
2023/06/29 10:32:34;;;;;;;19.23;12.07;;;23.80;99.90;;;;;;5064678;28;20194;-93
2023/06/29 10:35:09;;;;;;;15.33;11.67;;;23.90;99.90;;;;;;5065635;28;20191;-93
2023/06/29 10:37:37;;;;;;;20.60;12.20;;;23.70;99.90;;;;;;5069257;28;20182;-93
2023/06/29 10:40:27;;;;;;;16.90;12.03;;;23.70;99.90;;;;;;5073513;28;20211;-93
2023/06/29 10:42:54;;;;;;;19.20;11.57;;;23.70;99.90;;;;;;5067344;28;20207;-92
2023/06/29 10:45:21;;;;;;;17.47;11.43;;;23.70;1.00;;;;;;5067886;28;20263;-94
2023/06/29 10:47:55;;;;;;;15.57;11.27;;;23.50;1.00;;;;;;5057408;28;20180;-93
2023/06/29 10:50:28;;;;;;;15.03;11.00;;;23.40;1.00;;;;;;5058163;28;20261;-94
2023/06/29 10:52:59;;;;;;;19.57;11.70;;;23.30;1.00;;;;;;5063538;28;20167;-94
2023/06/29 10:55:28;;;;;;;15.47;11.53;;;23.20;1.00;;;;;;5059537;28;20187;-93
2023/06/29 10:58:12;;;;;;;17.73;12.23;;;23.20;1.00;;;;;;5061751;28;20294;-93
2023/06/29 11:00:38;;;;;;;23.40;13.03;;;23.30;1.00;;;;;;5065615;28;20184;-93
2023/06/29 11:03:04;;;;;;;17.23;12.27;;;22.90;1.00;;;;;;5068872;28;20201;-93
2023/06/29 11:05:33;;;;;;;19.50;12.20;;;22.90;1.00;;;;;;5068310;28;20187;-93
2023/06/29 11:07:58;;;;;;;20.40;12.20;;;23.00;1.00;;;;;;5069527;28;20172;-93
2023/06/29 11:10:24;;;;;;;15.97;11.07;;;23.00;1.00;;;;;;5066641;28;20218;-93
2023/06/29 11:12:54;;;;;;;15.30;10.73;;;22.70;1.00;;;;;;5066136;28;20202;-94
2023/06/29 11:15:19;;;;;;;16.57;11.13;;;22.70;35.10;;;;;;5063254;28;20187;-93
2023/06/29 11:17:48;;;;;;;17.57;11.87;;;22.60;92.40;;;;;;5066473;28;20179;-94
2023/06/29 11:20:16;;;;;;;14.50;10.77;;;22.50;91.20;;;;;;5064659;28;20218;-94
2023/06/29 11:22:43;;;;;;;16.63;11.77;;;22.30;95.50;;;;;;5063272;28;20182;-94
2023/06/29 11:25:11;;;;;;;15.13;10.93;;;22.70;99.90;;;;;;5060775;28;20188;-93
2023/06/29 11:27:37;;;;;;;18.07;12.03;;;22.30;99.90;;;;;;5059174;28;20680;-93
2023/06/29 11:30:07;;;;;;;16.37;11.77;;;22.50;99.90;;;;;;5065035;28;20207;-93
2023/06/29 11:32:33;;;;;;;18.30;11.70;;;22.30;99.90;;;;;;5046954;28;20219;-93
2023/06/29 11:35:01;;;;;;;16.47;10.83;;;22.30;99.90;;;;;;5053148;28;20239;-92
2023/06/29 11:37:27;;;;;;;16.83;11.27;;;22.40;99.90;;;;;;5057169;28;20179;-93
2023/06/29 11:39:53;;;;;;;13.93;10.97;;;22.40;99.90;;;;;;5059372;28;20302;-93
2023/06/29 11:42:23;;;;;;;16.90;11.00;;;22.60;99.90;;;;;;5058822;28;20283;-92
2023/06/29 11:44:50;;;;;;;19.50;11.80;;;22.50;99.90;;;;;;5042779;28;20191;-93
2023/06/29 11:47:16;;;;;;;18.87;12.17;;;22.50;99.90;;;;;;5060941;28;20184;-93
2023/06/29 11:49:42;;;;;;;17.50;12.00;;;22.50;99.90;;;;;;5060432;28;20232;-93
2023/06/29 11:52:08;;;;;;;21.23;14.03;;;22.50;99.90;;;;;;5063433;28;20183;-93
2023/06/29 11:54:35;;;;;;;26.87;17.00;;;22.60;99.90;;;;;;5059116;28;20599;-93
2023/06/29 11:57:00;;;;;;;27.30;15.67;;;23.00;99.90;;;;;;5061185;28;20168;-93
2023/06/29 11:59:26;;;;;;;23.53;15.87;;;22.60;99.90;;;;;;5059046;28;20499;-93
2023/06/29 12:01:52;;;;;;;22.27;15.60;;;22.90;99.90;;;;;;5059433;28;20230;-93
2023/06/29 12:04:18;;;;;;;24.67;15.63;;;22.90;94.30;;;;;;5059016;28;20175;-93
2023/06/29 12:06:54;;;;;;;23.53;16.97;;;23.10;49.80;;;;;;5060005;28;20167;-93
2023/06/29 12:09:20;;;;;;;23.77;17.27;;;23.20;1.00;;;;;;5059510;28;20196;-93
2023/06/29 12:11:56;;;;;;;24.17;16.43;;;23.30;1.00;;;;;;5055707;28;20181;-93
2023/06/29 12:14:22;;;;;;;27.30;17.23;;;23.40;1.00;;;;;;5048505;28;20533;-93
2023/06/29 12:16:51;;;;;;;23.27;17.23;;;23.50;1.00;;;;;;5046021;28;20184;-92
2023/06/29 12:19:16;;;;;;;23.57;16.23;;;23.60;1.00;;;;;;5057887;28;20580;-93
2023/06/29 12:21:42;;;;;;;28.20;17.93;;;23.70;1.00;;;;;;5058028;28;20168;-92
2023/06/29 12:24:07;;;;;;;25.00;17.17;;;23.70;1.00;;;;;;5057926;28;20286;-92
2023/06/29 12:26:33;;;;;;;21.87;16.37;;;23.60;1.00;;;;;;5054333;28;20188;-93
2023/06/29 12:28:58;;;;;;;24.07;15.80;;;23.60;1.00;;;;;;5046345;28;20208;-93
2023/06/29 12:31:28;;;;;;;24.23;16.87;;;23.50;1.00;;;;;;5053384;28;20189;-93
2023/06/29 12:33:54;;;;;;;22.03;16.80;;;23.70;1.00;;;;;;5042938;28;20266;-92
2023/06/29 12:36:20;;;;;;;21.33;16.80;;;23.70;99.90;;;;;;5048149;28;20180;-92
2023/06/29 12:38:47;;;;;;;22.60;17.13;;;23.70;99.90;;;;;;5047794;28;20211;-92
2023/06/29 12:41:13;;;;;;;28.07;17.10;;;23.80;99.90;;;;;;5054210;28;20278;-92